sensor_id;sensor_type;location;lat;lon;timestamp;P1;durP1;ratioP1;P2;durP2;ratioP2
21771;SDS011;11047;47.904;8.110;2023-11-21T00:00:44;0.60;;;0.35;;
21771;SDS011;11047;47.904;8.110;2023-11-21T00:03:12;1.45;;;0.20;;
21771;SDS011;11047;47.904;8.110;2023-11-21T00:05:40;1.95;;;0.50;;
21771;SDS011;11047;47.904;8.110;2023-11-21T00:08:07;0.25;;;0.20;;
21771;SDS011;11047;47.904;8.110;2023-11-21T00:10:34;1.00;;;0.38;;
21771;SDS011;11047;47.904;8.110;2023-11-21T00:13:04;0.80;;;0.22;;
21771;SDS011;11047;47.904;8.110;2023-11-21T00:15:31;1.75;;;0.32;;
21771;SDS011;11047;47.904;8.110;2023-11-21T00:17:58;0.35;;;0.10;;
21771;SDS011;11047;47.904;8.110;2023-11-21T00:20:26;0.10;;;0.10;;
21771;SDS011;11047;47.904;8.110;2023-11-21T00:22:52;0.20;;;0.20;;
21771;SDS011;11047;47.904;8.110;2023-11-21T00:25:19;0.10;;;0.10;;
21771;SDS011;11047;47.904;8.110;2023-11-21T00:27:46;1.00;;;0.20;;
21771;SDS011;11047;47.904;8.110;2023-11-21T00:30:15;2.72;;;0.30;;
21771;SDS011;11047;47.904;8.110;2023-11-21T00:32:41;1.38;;;0.25;;
21771;SDS011;11047;47.904;8.110;2023-11-21T00:35:08;0.52;;;0.28;;
21771;SDS011;11047;47.904;8.110;2023-11-21T00:37:35;1.20;;;0.13;;
21771;SDS011;11047;47.904;8.110;2023-11-21T00:40:04;0.20;;;0.20;;
21771;SDS011;11047;47.904;8.110;2023-11-21T00:42:32;0.20;;;0.20;;
21771;SDS011;11047;47.904;8.110;2023-11-21T00:44:59;0.20;;;0.20;;
21771;SDS011;11047;47.904;8.110;2023-11-21T00:47:28;0.35;;;0.20;;
21771;SDS011;11047;47.904;8.110;2023-11-21T00:49:55;0.38;;;0.30;;
21771;SDS011;11047;47.904;8.110;2023-11-21T00:52:22;0.77;;;0.45;;
21771;SDS011;11047;47.904;8.110;2023-11-21T00:54:49;0.88;;;0.20;;
21771;SDS011;11047;47.904;8.110;2023-11-21T00:57:16;0.10;;;0.05;;
21771;SDS011;11047;47.904;8.110;2023-11-21T00:59:43;0.10;;;0.10;;
21771;SDS011;11047;47.904;8.110;2023-11-21T01:02:10;0.55;;;0.30;;
21771;SDS011;11047;47.904;8.110;2023-11-21T01:04:38;0.60;;;0.17;;
21771;SDS011;11047;47.904;8.110;2023-11-21T01:07:05;3.50;;;0.30;;
21771;SDS011;11047;47.904;8.110;2023-11-21T01:09:32;0.30;;;0.30;;
21771;SDS011;11047;47.904;8.110;2023-11-21T01:11:59;0.38;;;0.10;;
21771;SDS011;11047;47.904;8.110;2023-11-21T01:14:26;0.20;;;0.20;;
21771;SDS011;11047;47.904;8.110;2023-11-21T01:16:53;0.98;;;0.20;;
21771;SDS011;11047;47.904;8.110;2023-11-21T01:19:20;0.50;;;0.20;;
21771;SDS011;11047;47.904;8.110;2023-11-21T01:21:48;0.20;;;0.10;;
21771;SDS011;11047;47.904;8.110;2023-11-21T01:24:17;0.30;;;0.20;;
21771;SDS011;11047;47.904;8.110;2023-11-21T01:26:44;0.25;;;0.15;;
21771;SDS011;11047;47.904;8.110;2023-11-21T01:29:11;0.20;;;0.20;;
21771;SDS011;11047;47.904;8.110;2023-11-21T01:31:38;0.20;;;0.20;;
21771;SDS011;11047;47.904;8.110;2023-11-21T01:34:05;0.65;;;0.20;;
21771;SDS011;11047;47.904;8.110;2023-11-21T01:36:32;0.10;;;0.10;;
21771;SDS011;11047;47.904;8.110;2023-11-21T01:39:02;0.15;;;0.15;;
21771;SDS011;11047;47.904;8.110;2023-11-21T01:41:33;0.73;;;0.20;;
21771;SDS011;11047;47.904;8.110;2023-11-21T01:44:00;0.20;;;0.20;;
21771;SDS011;11047;47.904;8.110;2023-11-21T01:46:27;0.30;;;0.20;;
21771;SDS011;11047;47.904;8.110;2023-11-21T01:48:54;0.25;;;0.25;;
21771;SDS011;11047;47.904;8.110;2023-11-21T01:51:21;0.20;;;0.20;;
21771;SDS011;11047;47.904;8.110;2023-11-21T01:53:48;0.20;;;0.20;;
21771;SDS011;11047;47.904;8.110;2023-11-21T01:56:17;0.10;;;0.10;;
21771;SDS011;11047;47.904;8.110;2023-11-21T01:58:44;0.10;;;0.10;;
21771;SDS011;11047;47.904;8.110;2023-11-21T02:01:12;0.20;;;0.10;;
21771;SDS011;11047;47.904;8.110;2023-11-21T02:03:39;0.43;;;0.17;;
21771;SDS011;11047;47.904;8.110;2023-11-21T02:06:06;0.43;;;0.20;;
21771;SDS011;11047;47.904;8.110;2023-11-21T02:08:33;0.40;;;0.30;;
21771;SDS011;11047;47.904;8.110;2023-11-21T02:11:02;0.20;;;0.20;;
21771;SDS011;11047;47.904;8.110;2023-11-21T02:13:31;0.40;;;0.10;;
21771;SDS011;11047;47.904;8.110;2023-11-21T02:15:59;0.70;;;0.20;;
21771;SDS011;11047;47.904;8.110;2023-11-21T02:18:25;0.10;;;0.10;;
21771;SDS011;11047;47.904;8.110;2023-11-21T02:20:54;0.98;;;0.38;;
21771;SDS011;11047;47.904;8.110;2023-11-21T02:23:23;0.10;;;0.10;;
21771;SDS011;11047;47.904;8.110;2023-11-21T02:25:53;0.10;;;0.10;;
21771;SDS011;11047;47.904;8.110;2023-11-21T02:28:21;0.10;;;0.10;;
21771;SDS011;11047;47.904;8.110;2023-11-21T02:30:50;0.10;;;0.10;;
21771;SDS011;11047;47.904;8.110;2023-11-21T02:33:20;0.10;;;0.10;;
21771;SDS011;11047;47.904;8.110;2023-11-21T02:35:48;0.10;;;0.10;;
21771;SDS011;11047;47.904;8.110;2023-11-21T02:38:14;0.10;;;0.10;;
21771;SDS011;11047;47.904;8.110;2023-11-21T02:40:43;0.35;;;0.10;;
21771;SDS011;11047;47.904;8.110;2023-11-21T02:43:10;0.20;;;0.20;;
21771;SDS011;11047;47.904;8.110;2023-11-21T02:45:37;1.30;;;0.10;;
21771;SDS011;11047;47.904;8.110;2023-11-21T02:48:04;0.90;;;0.20;;
21771;SDS011;11047;47.904;8.110;2023-11-21T02:50:31;0.10;;;0.10;;
21771;SDS011;11047;47.904;8.110;2023-11-21T02:52:58;0.10;;;0.10;;
21771;SDS011;11047;47.904;8.110;2023-11-21T02:55:25;0.47;;;0.10;;
21771;SDS011;11047;47.904;8.110;2023-11-21T02:57:54;0.10;;;0.10;;
21771;SDS011;11047;47.904;8.110;2023-11-21T03:00:22;0.10;;;0.10;;
21771;SDS011;11047;47.904;8.110;2023-11-21T03:02:51;0.10;;;0.10;;
21771;SDS011;11047;47.904;8.110;2023-11-21T03:05:20;0.10;;;0.10;;
21771;SDS011;11047;47.904;8.110;2023-11-21T03:07:47;0.10;;;0.10;;
21771;SDS011;11047;47.904;8.110;2023-11-21T03:10:14;1.25;;;0.20;;
21771;SDS011;11047;47.904;8.110;2023-11-21T03:12:41;0.10;;;0.10;;
21771;SDS011;11047;47.904;8.110;2023-11-21T03:15:11;0.20;;;0.17;;
21771;SDS011;11047;47.904;8.110;2023-11-21T03:17:38;0.10;;;0.10;;
21771;SDS011;11047;47.904;8.110;2023-11-21T03:20:06;0.10;;;0.10;;
21771;SDS011;11047;47.904;8.110;2023-11-21T03:22:35;0.10;;;0.10;;
21771;SDS011;11047;47.904;8.110;2023-11-21T03:25:03;0.20;;;0.10;;
21771;SDS011;11047;47.904;8.110;2023-11-21T03:27:31;0.20;;;0.10;;
21771;SDS011;11047;47.904;8.110;2023-11-21T03:29:58;0.20;;;0.20;;
21771;SDS011;11047;47.904;8.110;2023-11-21T03:32:26;0.22;;;0.13;;
21771;SDS011;11047;47.904;8.110;2023-11-21T03:34:53;0.20;;;0.20;;
21771;SDS011;11047;47.904;8.110;2023-11-21T03:37:22;0.10;;;0.10;;
21771;SDS011;11047;47.904;8.110;2023-11-21T03:39:49;0.10;;;0.10;;
21771;SDS011;11047;47.904;8.110;2023-11-21T03:42:16;0.52;;;0.15;;
21771;SDS011;11047;47.904;8.110;2023-11-21T03:44:43;0.30;;;0.20;;
21771;SDS011;11047;47.904;8.110;2023-11-21T03:47:10;0.10;;;0.10;;
21771;SDS011;11047;47.904;8.110;2023-11-21T03:49:38;0.20;;;0.20;;
21771;SDS011;11047;47.904;8.110;2023-11-21T03:52:05;0.10;;;0.10;;
21771;SDS011;11047;47.904;8.110;2023-11-21T03:54:34;0.20;;;0.20;;
21771;SDS011;11047;47.904;8.110;2023-11-21T03:57:01;0.10;;;0.10;;
21771;SDS011;11047;47.904;8.110;2023-11-21T03:59:28;0.10;;;0.10;;
21771;SDS011;11047;47.904;8.110;2023-11-21T04:01:55;0.17;;;0.17;;
21771;SDS011;11047;47.904;8.110;2023-11-21T04:04:22;0.10;;;0.10;;
21771;SDS011;11047;47.904;8.110;2023-11-21T04:06:50;0.05;;;0.05;;
21771;SDS011;11047;47.904;8.110;2023-11-21T04:09:18;1.27;;;0.15;;
21771;SDS011;11047;47.904;8.110;2023-11-21T04:11:45;0.90;;;0.20;;
21771;SDS011;11047;47.904;8.110;2023-11-21T04:14:13;0.30;;;0.20;;
21771;SDS011;11047;47.904;8.110;2023-11-21T04:16:40;0.10;;;0.10;;
21771;SDS011;11047;47.904;8.110;2023-11-21T04:19:08;0.52;;;0.17;;
21771;SDS011;11047;47.904;8.110;2023-11-21T04:21:35;1.38;;;0.20;;
21771;SDS011;11047;47.904;8.110;2023-11-21T04:24:04;0.47;;;0.47;;
21771;SDS011;11047;47.904;8.110;2023-11-21T04:26:32;0.20;;;0.20;;
21771;SDS011;11047;47.904;8.110;2023-11-21T04:28:59;0.22;;;0.10;;
21771;SDS011;11047;47.904;8.110;2023-11-21T04:31:26;0.68;;;0.10;;
21771;SDS011;11047;47.904;8.110;2023-11-21T04:33:52;0.20;;;0.20;;
21771;SDS011;11047;47.904;8.110;2023-11-21T04:36:19;0.10;;;0.10;;
21771;SDS011;11047;47.904;8.110;2023-11-21T04:38:46;0.15;;;0.15;;
21771;SDS011;11047;47.904;8.110;2023-11-21T04:41:15;0.10;;;0.10;;
21771;SDS011;11047;47.904;8.110;2023-11-21T04:43:43;0.75;;;0.50;;
21771;SDS011;11047;47.904;8.110;2023-11-21T04:46:09;0.77;;;0.25;;
21771;SDS011;11047;47.904;8.110;2023-11-21T04:48:36;0.30;;;0.30;;
21771;SDS011;11047;47.904;8.110;2023-11-21T04:51:03;1.88;;;0.30;;
21771;SDS011;11047;47.904;8.110;2023-11-21T04:53:30;1.20;;;0.22;;
21771;SDS011;11047;47.904;8.110;2023-11-21T04:55:57;0.13;;;0.13;;
21771;SDS011;11047;47.904;8.110;2023-11-21T04:58:26;0.32;;;0.20;;
21771;SDS011;11047;47.904;8.110;2023-11-21T05:00:53;0.25;;;0.20;;
21771;SDS011;11047;47.904;8.110;2023-11-21T05:03:20;0.20;;;0.20;;
21771;SDS011;11047;47.904;8.110;2023-11-21T05:05:48;0.30;;;0.28;;
21771;SDS011;11047;47.904;8.110;2023-11-21T05:08:15;2.50;;;0.40;;
21771;SDS011;11047;47.904;8.110;2023-11-21T05:10:42;3.42;;;0.32;;
21771;SDS011;11047;47.904;8.110;2023-11-21T05:13:09;1.65;;;0.50;;
21771;SDS011;11047;47.904;8.110;2023-11-21T05:15:37;0.40;;;0.40;;
21771;SDS011;11047;47.904;8.110;2023-11-21T05:18:04;0.90;;;0.50;;
21771;SDS011;11047;47.904;8.110;2023-11-21T05:20:32;0.30;;;0.30;;
21771;SDS011;11047;47.904;8.110;2023-11-21T05:22:59;2.45;;;0.50;;
21771;SDS011;11047;47.904;8.110;2023-11-21T05:25:26;0.70;;;0.30;;
21771;SDS011;11047;47.904;8.110;2023-11-21T05:27:53;0.40;;;0.40;;
21771;SDS011;11047;47.904;8.110;2023-11-21T05:30:20;0.70;;;0.70;;
21771;SDS011;11047;47.904;8.110;2023-11-21T05:32:49;0.60;;;0.60;;
21771;SDS011;11047;47.904;8.110;2023-11-21T05:35:16;2.33;;;0.93;;
21771;SDS011;11047;47.904;8.110;2023-11-21T05:37:43;0.60;;;0.60;;
21771;SDS011;11047;47.904;8.110;2023-11-21T05:40:11;1.55;;;0.38;;
21771;SDS011;11047;47.904;8.110;2023-11-21T05:42:39;0.40;;;0.40;;
21771;SDS011;11047;47.904;8.110;2023-11-21T05:45:06;0.93;;;0.52;;
21771;SDS011;11047;47.904;8.110;2023-11-21T05:47:36;1.20;;;0.50;;
21771;SDS011;11047;47.904;8.110;2023-11-21T05:50:07;0.47;;;0.47;;
21771;SDS011;11047;47.904;8.110;2023-11-21T05:52:46;0.43;;;0.43;;
21771;SDS011;11047;47.904;8.110;2023-11-21T05:55:13;1.85;;;1.30;;
21771;SDS011;11047;47.904;8.110;2023-11-21T05:57:41;0.68;;;0.68;;
21771;SDS011;11047;47.904;8.110;2023-11-21T06:00:10;2.30;;;1.60;;
21771;SDS011;11047;47.904;8.110;2023-11-21T06:02:43;1.02;;;0.93;;
21771;SDS011;11047;47.904;8.110;2023-11-21T06:05:11;0.50;;;0.50;;
21771;SDS011;11047;47.904;8.110;2023-11-21T06:07:38;0.30;;;0.30;;
21771;SDS011;11047;47.904;8.110;2023-11-21T06:10:06;0.85;;;0.85;;
21771;SDS011;11047;47.904;8.110;2023-11-21T06:12:34;0.30;;;0.30;;
21771;SDS011;11047;47.904;8.110;2023-11-21T06:15:02;0.55;;;0.40;;
21771;SDS011;11047;47.904;8.110;2023-11-21T06:17:30;0.30;;;0.30;;
21771;SDS011;11047;47.904;8.110;2023-11-21T06:19:57;0.70;;;0.38;;
21771;SDS011;11047;47.904;8.110;2023-11-21T06:22:27;1.40;;;0.88;;
21771;SDS011;11047;47.904;8.110;2023-11-21T06:24:55;0.60;;;0.60;;
21771;SDS011;11047;47.904;8.110;2023-11-21T06:27:22;0.50;;;0.50;;
21771;SDS011;11047;47.904;8.110;2023-11-21T06:29:50;0.60;;;0.60;;
21771;SDS011;11047;47.904;8.110;2023-11-21T06:32:16;1.23;;;0.55;;
21771;SDS011;11047;47.904;8.110;2023-11-21T06:34:45;0.40;;;0.40;;
21771;SDS011;11047;47.904;8.110;2023-11-21T06:37:12;0.77;;;0.43;;
21771;SDS011;11047;47.904;8.110;2023-11-21T06:39:40;0.98;;;0.88;;
21771;SDS011;11047;47.904;8.110;2023-11-21T06:42:07;2.03;;;1.55;;
21771;SDS011;11047;47.904;8.110;2023-11-21T06:44:35;0.90;;;0.90;;
21771;SDS011;11047;47.904;8.110;2023-11-21T06:47:03;1.25;;;1.05;;
21771;SDS011;11047;47.904;8.110;2023-11-21T06:49:30;1.00;;;0.90;;
21771;SDS011;11047;47.904;8.110;2023-11-21T06:51:57;1.90;;;1.27;;
21771;SDS011;11047;47.904;8.110;2023-11-21T06:54:24;2.83;;;1.98;;
21771;SDS011;11047;47.904;8.110;2023-11-21T06:56:52;1.80;;;1.10;;
21771;SDS011;11047;47.904;8.110;2023-11-21T06:59:19;0.85;;;0.85;;
21771;SDS011;11047;47.904;8.110;2023-11-21T07:01:46;1.20;;;1.10;;
21771;SDS011;11047;47.904;8.110;2023-11-21T07:04:13;1.13;;;1.02;;
21771;SDS011;11047;47.904;8.110;2023-11-21T07:06:40;1.58;;;0.70;;
21771;SDS011;11047;47.904;8.110;2023-11-21T07:09:08;2.42;;;1.30;;
21771;SDS011;11047;47.904;8.110;2023-11-21T07:11:36;2.67;;;1.20;;
21771;SDS011;11047;47.904;8.110;2023-11-21T07:14:05;1.63;;;1.08;;
21771;SDS011;11047;47.904;8.110;2023-11-21T07:16:34;1.83;;;1.10;;
21771;SDS011;11047;47.904;8.110;2023-11-21T07:19:02;1.40;;;0.90;;
21771;SDS011;11047;47.904;8.110;2023-11-21T07:21:31;1.55;;;1.20;;
21771;SDS011;11047;47.904;8.110;2023-11-21T07:23:58;2.28;;;1.17;;
21771;SDS011;11047;47.904;8.110;2023-11-21T07:26:24;1.20;;;1.10;;
21771;SDS011;11047;47.904;8.110;2023-11-21T07:28:51;2.03;;;1.80;;
21771;SDS011;11047;47.904;8.110;2023-11-21T07:31:20;2.97;;;2.15;;
21771;SDS011;11047;47.904;8.110;2023-11-21T07:33:47;1.83;;;1.73;;
21771;SDS011;11047;47.904;8.110;2023-11-21T07:36:14;2.30;;;1.70;;
21771;SDS011;11047;47.904;8.110;2023-11-21T07:38:43;3.53;;;1.40;;
21771;SDS011;11047;47.904;8.110;2023-11-21T07:41:10;3.20;;;1.48;;
21771;SDS011;11047;47.904;8.110;2023-11-21T07:43:40;1.60;;;1.50;;
21771;SDS011;11047;47.904;8.110;2023-11-21T07:46:08;2.53;;;1.30;;
21771;SDS011;11047;47.904;8.110;2023-11-21T07:48:36;2.97;;;1.55;;
21771;SDS011;11047;47.904;8.110;2023-11-21T07:51:03;1.42;;;1.33;;
21771;SDS011;11047;47.904;8.110;2023-11-21T07:53:30;2.20;;;1.42;;
21771;SDS011;11047;47.904;8.110;2023-11-21T07:55:57;1.48;;;1.38;;
21771;SDS011;11047;47.904;8.110;2023-11-21T07:58:25;1.50;;;1.40;;
21771;SDS011;11047;47.904;8.110;2023-11-21T08:00:51;1.65;;;1.35;;
21771;SDS011;11047;47.904;8.110;2023-11-21T08:03:18;1.27;;;1.10;;
21771;SDS011;11047;47.904;8.110;2023-11-21T08:05:47;2.70;;;1.42;;
21771;SDS011;11047;47.904;8.110;2023-11-21T08:08:14;1.20;;;1.10;;
21771;SDS011;11047;47.904;8.110;2023-11-21T08:10:43;2.05;;;1.15;;
21771;SDS011;11047;47.904;8.110;2023-11-21T08:13:13;3.28;;;1.17;;
21771;SDS011;11047;47.904;8.110;2023-11-21T08:15:42;1.40;;;1.30;;
21771;SDS011;11047;47.904;8.110;2023-11-21T08:18:11;1.27;;;1.15;;
21771;SDS011;11047;47.904;8.110;2023-11-21T08:20:39;1.45;;;1.30;;
21771;SDS011;11047;47.904;8.110;2023-11-21T08:23:08;2.53;;;1.50;;
21771;SDS011;11047;47.904;8.110;2023-11-21T08:25:35;1.42;;;1.33;;
21771;SDS011;11047;47.904;8.110;2023-11-21T08:28:02;1.20;;;1.10;;
21771;SDS011;11047;47.904;8.110;2023-11-21T08:30:29;1.40;;;1.10;;
21771;SDS011;11047;47.904;8.110;2023-11-21T08:32:57;1.02;;;0.82;;
21771;SDS011;11047;47.904;8.110;2023-11-21T08:35:24;1.48;;;1.38;;
21771;SDS011;11047;47.904;8.110;2023-11-21T08:37:51;1.23;;;1.05;;
21771;SDS011;11047;47.904;8.110;2023-11-21T08:40:20;1.30;;;1.20;;
21771;SDS011;11047;47.904;8.110;2023-11-21T08:42:47;1.60;;;1.30;;
21771;SDS011;11047;47.904;8.110;2023-11-21T08:45:14;2.08;;;1.20;;
21771;SDS011;11047;47.904;8.110;2023-11-21T08:47:42;3.40;;;1.50;;
21771;SDS011;11047;47.904;8.110;2023-11-21T08:50:10;4.72;;;1.77;;
21771;SDS011;11047;47.904;8.110;2023-11-21T08:52:38;2.17;;;1.30;;
21771;SDS011;11047;47.904;8.110;2023-11-21T08:55:05;1.95;;;1.17;;
21771;SDS011;11047;47.904;8.110;2023-11-21T08:57:35;1.25;;;1.10;;
21771;SDS011;11047;47.904;8.110;2023-11-21T09:00:02;1.90;;;1.77;;
21771;SDS011;11047;47.904;8.110;2023-11-21T09:02:34;1.50;;;1.40;;
21771;SDS011;11047;47.904;8.110;2023-11-21T09:05:02;1.48;;;0.90;;
21771;SDS011;11047;47.904;8.110;2023-11-21T09:07:29;0.93;;;0.93;;
21771;SDS011;11047;47.904;8.110;2023-11-21T09:09:56;1.88;;;1.75;;
21771;SDS011;11047;47.904;8.110;2023-11-21T09:12:23;0.88;;;0.88;;
21771;SDS011;11047;47.904;8.110;2023-11-21T09:14:52;2.78;;;1.50;;
21771;SDS011;11047;47.904;8.110;2023-11-21T09:17:19;1.48;;;1.38;;
21771;SDS011;11047;47.904;8.110;2023-11-21T09:19:47;2.97;;;2.03;;
21771;SDS011;11047;47.904;8.110;2023-11-21T09:25:24;1.52;;;1.40;;
21771;SDS011;11047;47.904;8.110;2023-11-21T09:27:51;1.35;;;1.23;;
21771;SDS011;11047;47.904;8.110;2023-11-21T09:30:19;1.13;;;1.02;;
21771;SDS011;11047;47.904;8.110;2023-11-21T09:32:46;1.25;;;1.15;;
21771;SDS011;11047;47.904;8.110;2023-11-21T09:35:13;1.98;;;1.42;;
21771;SDS011;11047;47.904;8.110;2023-11-21T09:37:40;1.90;;;1.20;;
21771;SDS011;11047;47.904;8.110;2023-11-21T09:40:08;0.70;;;0.70;;
21771;SDS011;11047;47.904;8.110;2023-11-21T09:42:39;1.58;;;1.13;;
21771;SDS011;11047;47.904;8.110;2023-11-21T09:45:09;3.13;;;1.20;;
21771;SDS011;11047;47.904;8.110;2023-11-21T09:47:44;1.95;;;1.10;;
21771;SDS011;11047;47.904;8.110;2023-11-21T09:50:13;2.22;;;1.30;;
21771;SDS011;11047;47.904;8.110;2023-11-21T09:52:47;1.25;;;1.02;;
21771;SDS011;11047;47.904;8.110;2023-11-21T09:55:22;1.17;;;1.08;;
21771;SDS011;11047;47.904;8.110;2023-11-21T09:57:52;0.98;;;0.95;;
21771;SDS011;11047;47.904;8.110;2023-11-21T10:00:19;1.17;;;1.00;;
21771;SDS011;11047;47.904;8.110;2023-11-21T10:02:50;1.23;;;0.98;;
21771;SDS011;11047;47.904;8.110;2023-11-21T10:05:18;1.27;;;1.17;;
21771;SDS011;11047;47.904;8.110;2023-11-21T10:07:47;1.15;;;0.70;;
21771;SDS011;11047;47.904;8.110;2023-11-21T10:10:17;0.82;;;0.73;;
21771;SDS011;11047;47.904;8.110;2023-11-21T10:12:48;1.30;;;1.15;;
21771;SDS011;11047;47.904;8.110;2023-11-21T10:15:18;1.30;;;1.02;;
21771;SDS011;11047;47.904;8.110;2023-11-21T10:17:48;1.23;;;1.13;;
21771;SDS011;11047;47.904;8.110;2023-11-21T10:20:18;1.85;;;0.90;;
21771;SDS011;11047;47.904;8.110;2023-11-21T10:22:45;1.08;;;0.98;;
21771;SDS011;11047;47.904;8.110;2023-11-21T10:25:12;1.83;;;1.00;;
21771;SDS011;11047;47.904;8.110;2023-11-21T10:27:40;1.15;;;0.90;;
21771;SDS011;11047;47.904;8.110;2023-11-21T10:30:08;1.83;;;0.95;;
21771;SDS011;11047;47.904;8.110;2023-11-21T10:32:37;2.40;;;1.30;;
21771;SDS011;11047;47.904;8.110;2023-11-21T10:35:07;1.42;;;1.33;;
21771;SDS011;11047;47.904;8.110;2023-11-21T10:37:35;1.42;;;1.10;;
21771;SDS011;11047;47.904;8.110;2023-11-21T10:40:04;1.17;;;1.00;;
21771;SDS011;11047;47.904;8.110;2023-11-21T10:42:32;1.50;;;1.40;;
21771;SDS011;11047;47.904;8.110;2023-11-21T10:44:59;1.45;;;1.35;;
21771;SDS011;11047;47.904;8.110;2023-11-21T10:47:28;4.28;;;1.35;;
21771;SDS011;11047;47.904;8.110;2023-11-21T10:49:55;2.45;;;1.25;;
21771;SDS011;11047;47.904;8.110;2023-11-21T10:52:26;1.30;;;1.20;;
21771;SDS011;11047;47.904;8.110;2023-11-21T10:54:54;1.48;;;1.38;;
21771;SDS011;11047;47.904;8.110;2023-11-21T10:57:24;1.67;;;1.58;;
21771;SDS011;11047;47.904;8.110;2023-11-21T10:59:51;3.58;;;1.60;;
21771;SDS011;11047;47.904;8.110;2023-11-21T11:02:23;1.52;;;1.42;;
21771;SDS011;11047;47.904;8.110;2023-11-21T11:04:53;1.17;;;1.08;;
21771;SDS011;11047;47.904;8.110;2023-11-21T11:07:21;1.08;;;0.98;;
21771;SDS011;11047;47.904;8.110;2023-11-21T11:09:55;0.70;;;0.70;;
21771;SDS011;11047;47.904;8.110;2023-11-21T11:12:24;1.20;;;1.10;;
21771;SDS011;11047;47.904;8.110;2023-11-21T11:14:51;0.77;;;0.77;;
21771;SDS011;11047;47.904;8.110;2023-11-21T11:17:19;0.80;;;0.73;;
21771;SDS011;11047;47.904;8.110;2023-11-21T11:19:46;0.93;;;0.90;;
21771;SDS011;11047;47.904;8.110;2023-11-21T11:22:17;0.80;;;0.80;;
21771;SDS011;11047;47.904;8.110;2023-11-21T11:25:01;3.17;;;0.63;;
21771;SDS011;11047;47.904;8.110;2023-11-21T11:27:40;0.55;;;0.55;;
21771;SDS011;11047;47.904;8.110;2023-11-21T11:30:17;0.50;;;0.50;;
21771;SDS011;11047;47.904;8.110;2023-11-21T11:32:55;0.60;;;0.60;;
21771;SDS011;11047;47.904;8.110;2023-11-21T11:35:33;1.05;;;0.68;;
21771;SDS011;11047;47.904;8.110;2023-11-21T11:38:06;1.52;;;0.73;;
21771;SDS011;11047;47.904;8.110;2023-11-21T11:40:39;0.90;;;0.90;;
21771;SDS011;11047;47.904;8.110;2023-11-21T11:43:07;0.85;;;0.55;;
21771;SDS011;11047;47.904;8.110;2023-11-21T11:45:34;0.55;;;0.50;;
21771;SDS011;11047;47.904;8.110;2023-11-21T11:48:06;0.60;;;0.60;;
21771;SDS011;11047;47.904;8.110;2023-11-21T11:50:33;0.50;;;0.50;;
21771;SDS011;11047;47.904;8.110;2023-11-21T11:53:11;0.55;;;0.55;;
21771;SDS011;11047;47.904;8.110;2023-11-21T11:55:40;0.30;;;0.30;;
21771;SDS011;11047;47.904;8.110;2023-11-21T11:58:08;0.40;;;0.40;;
21771;SDS011;11047;47.904;8.110;2023-11-21T12:00:35;0.25;;;0.25;;
21771;SDS011;11047;47.904;8.110;2023-11-21T12:03:05;0.40;;;0.40;;
21771;SDS011;11047;47.904;8.110;2023-11-21T12:05:34;0.30;;;0.30;;
21771;SDS011;11047;47.904;8.110;2023-11-21T12:08:04;0.17;;;0.17;;
21771;SDS011;11047;47.904;8.110;2023-11-21T12:10:33;0.20;;;0.20;;
21771;SDS011;11047;47.904;8.110;2023-11-21T12:13:05;0.30;;;0.30;;
21771;SDS011;11047;47.904;8.110;2023-11-21T12:15:33;0.40;;;0.30;;
21771;SDS011;11047;47.904;8.110;2023-11-21T12:18:00;0.50;;;0.50;;
21771;SDS011;11047;47.904;8.110;2023-11-21T12:20:27;0.38;;;0.30;;
21771;SDS011;11047;47.904;8.110;2023-11-21T12:22:56;0.20;;;0.20;;
21771;SDS011;11047;47.904;8.110;2023-11-21T12:25:24;0.20;;;0.20;;
21771;SDS011;11047;47.904;8.110;2023-11-21T12:27:54;0.20;;;0.20;;
21771;SDS011;11047;47.904;8.110;2023-11-21T12:30:24;0.25;;;0.25;;
21771;SDS011;11047;47.904;8.110;2023-11-21T12:32:53;0.22;;;0.22;;
21771;SDS011;11047;47.904;8.110;2023-11-21T12:35:22;0.40;;;0.40;;
21771;SDS011;11047;47.904;8.110;2023-11-21T12:37:51;0.35;;;0.35;;
21771;SDS011;11047;47.904;8.110;2023-11-21T12:40:19;0.20;;;0.20;;
21771;SDS011;11047;47.904;8.110;2023-11-21T12:42:48;0.20;;;0.20;;
21771;SDS011;11047;47.904;8.110;2023-11-21T12:45:19;0.40;;;0.40;;
21771;SDS011;11047;47.904;8.110;2023-11-21T12:47:47;0.50;;;0.30;;
21771;SDS011;11047;47.904;8.110;2023-11-21T12:50:15;0.30;;;0.30;;
21771;SDS011;11047;47.904;8.110;2023-11-21T12:52:49;0.75;;;0.28;;
21771;SDS011;11047;47.904;8.110;2023-11-21T12:55:18;0.30;;;0.30;;
21771;SDS011;11047;47.904;8.110;2023-11-21T12:57:47;0.50;;;0.50;;
21771;SDS011;11047;47.904;8.110;2023-11-21T13:00:16;0.60;;;0.60;;
21771;SDS011;11047;47.904;8.110;2023-11-21T13:02:54;0.35;;;0.35;;
21771;SDS011;11047;47.904;8.110;2023-11-21T13:05:24;0.40;;;0.40;;
21771;SDS011;11047;47.904;8.110;2023-11-21T13:07:51;0.40;;;0.25;;
21771;SDS011;11047;47.904;8.110;2023-11-21T13:10:19;0.20;;;0.20;;
21771;SDS011;11047;47.904;8.110;2023-11-21T13:12:50;0.50;;;0.50;;
21771;SDS011;11047;47.904;8.110;2023-11-21T13:15:18;0.32;;;0.30;;
21771;SDS011;11047;47.904;8.110;2023-11-21T13:17:45;0.85;;;0.28;;
21771;SDS011;11047;47.904;8.110;2023-11-21T13:20:14;0.30;;;0.30;;
21771;SDS011;11047;47.904;8.110;2023-11-21T13:22:45;0.30;;;0.30;;
21771;SDS011;11047;47.904;8.110;2023-11-21T13:25:14;0.35;;;0.35;;
21771;SDS011;11047;47.904;8.110;2023-11-21T13:27:42;0.40;;;0.40;;
21771;SDS011;11047;47.904;8.110;2023-11-21T13:30:11;0.50;;;0.40;;
21771;SDS011;11047;47.904;8.110;2023-11-21T13:32:41;0.30;;;0.30;;
21771;SDS011;11047;47.904;8.110;2023-11-21T13:35:08;0.20;;;0.20;;
21771;SDS011;11047;47.904;8.110;2023-11-21T13:37:46;0.73;;;0.60;;
21771;SDS011;11047;47.904;8.110;2023-11-21T13:40:16;0.40;;;0.40;;
21771;SDS011;11047;47.904;8.110;2023-11-21T13:42:47;1.10;;;0.55;;
21771;SDS011;11047;47.904;8.110;2023-11-21T13:45:18;0.63;;;0.60;;
21771;SDS011;11047;47.904;8.110;2023-11-21T13:47:47;0.60;;;0.60;;
21771;SDS011;11047;47.904;8.110;2023-11-21T13:50:16;0.50;;;0.50;;
21771;SDS011;11047;47.904;8.110;2023-11-21T13:52:49;0.75;;;0.65;;
21771;SDS011;11047;47.904;8.110;2023-11-21T13:55:18;0.50;;;0.50;;
21771;SDS011;11047;47.904;8.110;2023-11-21T13:57:45;0.50;;;0.50;;
21771;SDS011;11047;47.904;8.110;2023-11-21T14:00:15;0.40;;;0.40;;
21771;SDS011;11047;47.904;8.110;2023-11-21T14:02:56;0.22;;;0.22;;
21771;SDS011;11047;47.904;8.110;2023-11-21T14:05:25;1.00;;;0.70;;
21771;SDS011;11047;47.904;8.110;2023-11-21T14:07:55;2.05;;;0.57;;
21771;SDS011;11047;47.904;8.110;2023-11-21T14:10:28;0.30;;;0.30;;
21771;SDS011;11047;47.904;8.110;2023-11-21T14:13:02;0.50;;;0.50;;
21771;SDS011;11047;47.904;8.110;2023-11-21T14:15:30;0.60;;;0.55;;
21771;SDS011;11047;47.904;8.110;2023-11-21T14:17:58;0.70;;;0.70;;
21771;SDS011;11047;47.904;8.110;2023-11-21T14:20:27;0.60;;;0.60;;
21771;SDS011;11047;47.904;8.110;2023-11-21T14:22:56;0.80;;;0.80;;
21771;SDS011;11047;47.904;8.110;2023-11-21T14:25:23;0.65;;;0.60;;
21771;SDS011;11047;47.904;8.110;2023-11-21T14:27:52;0.80;;;0.80;;
21771;SDS011;11047;47.904;8.110;2023-11-21T14:30:18;0.60;;;0.60;;
21771;SDS011;11047;47.904;8.110;2023-11-21T14:32:47;1.85;;;0.90;;
21771;SDS011;11047;47.904;8.110;2023-11-21T14:35:15;1.00;;;0.90;;
21771;SDS011;11047;47.904;8.110;2023-11-21T14:37:42;0.95;;;0.90;;
21771;SDS011;11047;47.904;8.110;2023-11-21T14:40:11;1.70;;;1.50;;
21771;SDS011;11047;47.904;8.110;2023-11-21T14:42:41;1.58;;;1.38;;
21771;SDS011;11047;47.904;8.110;2023-11-21T14:45:08;4.10;;;1.55;;
21771;SDS011;11047;47.904;8.110;2023-11-21T14:47:38;1.60;;;1.50;;
21771;SDS011;11047;47.904;8.110;2023-11-21T14:50:10;1.95;;;1.67;;
21771;SDS011;11047;47.904;8.110;2023-11-21T14:53:04;1.55;;;1.40;;
21771;SDS011;11047;47.904;8.110;2023-11-21T14:55:32;1.98;;;1.50;;
21771;SDS011;11047;47.904;8.110;2023-11-21T14:58:06;2.85;;;1.40;;